Valdosta, GA

5:20 PM EST on December 28, 2014 (GMT -0500)
Audio Video and Security Inc. | Change Station
CLOSE
Current Station
Personal Weather Station
Location: Valdosta, GA
Elevation: 220 ft
Nearby Weather Stations
Active Advisory: Flood Warning

Elev 220 ft 30.81 °N, 83.32 °W | Updated 41 seconds ago

Scattered Clouds
Scattered Clouds
72.5 °F
Feels Like 76 °F
N
3.1
Wind Variable Wind from NNE
Gusts 4.5 mph

Today
High -- | Low -- °F
--% Chance of Precip.
Yesterday
High -- | Low -- °F
Precip. -- in
7:29 AM 5:40 PM
First Quarter, 52% visible
Pressure 30.09 in
Visibility 10.0 miles
Clouds Few 3900 ft
Scattered Clouds 20000 ft
Heat Index 76 °F
Dew Point 60 °F
Humidity 64%
Rainfall 0.00 in
Snow Depth Not available.
UV 0 out of 12
Pollen 1.30 out of 12
Air Quality Not available.
Flu Activity Not available.
METAR KVLD 282153Z 21003KT 10SM FEW039 SCT200 23/16 A3006 RMK AO2 SLP187 T02330161

More Conditions Fewer Conditions

Pressure 30.09 in
Visibility 10.0 miles
Clouds Few 3900 ft
Scattered Clouds 20000 ft
Heat Index 76 °F
Dew Point 60 °F
Humidity 64%
Rainfall 0.00 in
Snow Depth Not available.
UV 0 out of 12
Pollen 1.30 out of 12
Air Quality Not available.
Flu Activity Not available.
METAR KVLD 282153Z 21003KT 10SM FEW039 SCT200 23/16 A3006 RMK AO2 SLP187 T02330161

More Conditions Fewer Conditions

10-Day Weather Forecast

Almanac

Astronomy

Dec. 28, 2014 Rise Set
Actual Time
Civil Twilight
Nautical Twilight
Astronomical Twilight
Moon
Length of Visible Light
Length of Day
Tomorrow will be .
, % of the Moon is Illuminated

Today's Extremes

State Highs State Lows

Community

WunderPhotos

Upload Photos

1,781,446 photos uploaded!

WunderBlogs® & News

Nearby

Air Quality

  Air Quality AQ Index Pollutant
Not available.

Snow Depth

Station Depth Elevation

Earthquake Activity

City Distance Mag. Time & Date
Minimum magnitude displayed is 2.5.

Coastal Water Temperatures

Place Temperature

Nearby Weather Stations